Time;durP1;ratioP1;P1;durP2;ratioP2;P2;SDS_P1;SDS_P2;PMS_P1;PMS_P2;Temp;Humidity;BMP_temperature;BMP_pressure;BME280_temperature;BME280_humidity;BME280_pressure;Samples;Min_cycle;Max_cycle;Signal;HPM_P1;HPM_P2
2023/07/21 00:01:46;;;;;;;;;;;;;;;12.56;100.00;101228.44;10415829;28;20099;-67
2023/07/21 00:06:47;;;;;;;3.47;1.92;;;;;;;12.49;100.00;101227.81;10431462;28;19927;-67
2023/07/21 00:11:47;;;;;;;3.90;2.60;;;;;;;12.43;100.00;101226.91;10395437;28;20079;-67
2023/07/21 00:16:53;;;;;;;4.28;2.47;;;;;;;12.32;100.00;101216.88;10398202;28;20044;-67
2023/07/21 00:21:53;;;;;;;3.90;2.50;;;;;;;12.27;100.00;101223.13;10405449;28;20486;-67
2023/07/21 00:26:54;;;;;;;8.57;3.95;;;;;;;12.29;100.00;101203.56;10384579;28;20044;-68
2023/07/21 00:31:55;;;;;;;7.32;3.00;;;;;;;12.24;100.00;101207.09;10431463;28;20536;-67
2023/07/21 00:36:56;;;;;;;7.45;3.17;;;;;;;12.20;100.00;101200.41;10402983;28;20107;-67
2023/07/21 00:41:57;;;;;;;6.43;2.88;;;;;;;12.22;100.00;101191.88;10387244;28;20054;-67
2023/07/21 00:46:57;;;;;;;5.30;4.03;;;;;;;12.25;100.00;101191.34;10398267;28;20398;-67
2023/07/21 00:51:58;;;;;;;7.88;4.32;;;;;;;12.24;100.00;101187.78;10400084;28;20041;-67
2023/07/21 00:56:59;;;;;;;6.72;3.90;;;;;;;12.16;100.00;101182.72;10381575;28;20040;-67
2023/07/21 01:01:59;;;;;;;6.30;3.85;;;;;;;12.15;100.00;101197.59;10392057;28;20111;-67
2023/07/21 01:07:01;;;;;;;8.10;5.53;;;;;;;12.10;100.00;101189.25;10424620;28;20119;-67
2023/07/21 01:12:05;;;;;;;7.95;5.25;;;;;;;12.04;100.00;101188.34;10397296;28;20053;-67
2023/07/21 01:17:06;;;;;;;8.20;5.50;;;;;;;11.96;100.00;101175.00;10413308;28;20045;-67
2023/07/21 01:22:30;;;;;;;8.32;5.38;;;;;;;11.86;100.00;101178.41;10396824;28;20056;-67
2023/07/21 01:27:31;;;;;;;11.00;5.22;;;;;;;11.62;100.00;101150.25;10384997;28;20033;-67
2023/07/21 01:32:33;;;;;;;12.00;5.72;;;;;;;11.52;100.00;101153.69;10379751;28;20049;-67
2023/07/21 01:37:37;;;;;;;10.65;5.85;;;;;;;11.49;100.00;101159.72;10397759;28;20124;-67
2023/07/21 01:42:38;;;;;;;7.97;5.60;;;;;;;11.42;100.00;101153.53;10400380;28;20048;-67
2023/07/21 01:47:39;;;;;;;10.18;5.68;;;;;;;11.30;100.00;101150.88;10396042;28;20068;-67
2023/07/21 01:52:39;;;;;;;10.07;5.93;;;;;;;11.15;100.00;101145.13;10410545;28;20050;-67
2023/07/21 01:57:43;;;;;;;8.52;5.60;;;;;;;11.01;100.00;101130.03;10377089;28;20056;-66
2023/07/21 02:02:47;;;;;;;11.30;4.97;;;;;;;10.92;100.00;101131.56;10408983;28;20044;-66
2023/07/21 02:07:48;;;;;;;9.45;6.05;;;;;;;10.92;100.00;101140.66;10396813;28;20064;-67
2023/07/21 02:12:48;;;;;;;7.10;4.53;;;;;;;10.96;100.00;101144.56;10409442;28;20087;-67
2023/07/21 02:17:49;;;;;;;9.63;4.47;;;;;;;10.86;100.00;101138.88;10403443;28;20049;-67
2023/07/21 02:22:49;;;;;;;7.88;4.22;;;;;;;10.81;100.00;101144.28;10389169;28;20037;-67
2023/07/21 02:27:50;;;;;;;7.70;4.70;;;;;;;10.73;100.00;101128.19;10425507;28;20436;-67
2023/07/21 02:32:50;;;;;;;7.32;4.43;;;;;;;10.63;100.00;101126.09;10399593;28;20104;-67
2023/07/21 02:37:51;;;;;;;7.63;4.85;;;;;;;10.53;100.00;101124.00;10409027;28;20038;-66
2023/07/21 02:42:52;;;;;;;8.05;5.53;;;;;;;10.42;100.00;101113.91;10408240;28;20069;-67
2023/07/21 02:47:52;;;;;;;7.75;4.68;;;;;;;10.35;100.00;101111.28;10432748;28;20116;-67
2023/07/21 02:52:54;;;;;;;9.27;4.50;;;;;;;10.36;100.00;101117.63;10409061;28;20366;-66
2023/07/21 02:57:54;;;;;;;8.32;4.80;;;;;;;10.29;100.00;101124.13;10430692;28;20303;-68
2023/07/21 03:02:55;;;;;;;7.75;3.95;;;;;;;10.23;100.00;101127.84;10393617;28;20042;-68
2023/07/21 03:07:56;;;;;;;9.30;4.07;;;;;;;10.16;100.00;101124.38;10399592;28;20029;-67
2023/07/21 03:12:58;;;;;;;7.15;4.72;;;;;;;10.14;100.00;101118.28;10394138;28;20497;-68
2023/07/21 03:17:58;;;;;;;6.97;4.57;;;;;;;10.09;100.00;101116.28;10395137;28;20069;-66
2023/07/21 03:22:59;;;;;;;6.60;4.28;;;;;;;10.05;100.00;101101.34;10388594;28;20390;-67
2023/07/21 03:27:59;;;;;;;10.93;4.50;;;;;;;10.02;100.00;101107.31;10383118;28;20057;-67
2023/07/21 03:33:00;;;;;;;7.50;4.85;;;;;;;10.09;100.00;101109.94;10374563;28;20068;-67
2023/07/21 03:38:00;;;;;;;8.45;4.32;;;;;;;10.05;100.00;101095.00;10422047;28;20045;-67
2023/07/21 03:43:01;;;;;;;6.90;4.05;;;;;;;10.06;100.00;101100.25;10389920;28;20041;-67
2023/07/21 03:48:02;;;;;;;7.82;4.43;;;;;;;10.02;100.00;101093.56;10422809;28;20118;-67
2023/07/21 03:53:04;;;;;;;8.95;4.47;;;;;;;9.88;100.00;101054.53;10460470;28;20063;-67
2023/07/21 03:58:05;;;;;;;6.85;4.50;;;;;;;10.20;100.00;101091.72;10443928;28;20100;-66
2023/07/21 04:03:05;;;;;;;12.95;5.95;;;;;;;10.14;100.00;101084.44;10422010;28;20064;-67
2023/07/21 04:08:06;;;;;;;11.18;5.90;;;;;;;10.25;100.00;101089.03;10444036;28;20029;-67
2023/07/21 04:13:07;;;;;;;10.45;5.15;;;;;;;10.23;100.00;101082.94;10422336;28;20045;-67
2023/07/21 04:18:07;;;;;;;11.35;5.63;;;;;;;10.40;100.00;101096.81;10440129;28;20033;-67
2023/07/21 04:23:09;;;;;;;12.43;6.60;;;;;;;10.41;100.00;101082.78;10459338;28;20092;-66
2023/07/21 04:28:10;;;;;;;8.02;5.57;;;;;;;10.53;100.00;101088.22;10423550;28;20033;-66
2023/07/21 04:33:10;;;;;;;11.30;6.88;;;;;;;10.63;100.00;101090.31;10439257;28;20044;-67
2023/07/21 04:38:11;;;;;;;13.45;7.18;;;;;;;10.68;100.00;101077.44;10424414;28;20064;-67
2023/07/21 04:43:12;;;;;;;12.20;8.38;;;;;;;10.88;100.00;101079.69;10416754;28;20040;-67
2023/07/21 04:48:13;;;;;;;10.48;6.95;;;;;;;11.08;100.00;101090.22;10452881;28;20037;-66
2023/07/21 04:53:13;;;;;;;14.20;7.45;;;;;;;11.28;100.00;101097.09;10440316;28;20047;-67
2023/07/21 04:58:14;;;;;;;15.20;7.40;;;;;;;11.39;100.00;101089.81;10396270;28;20037;-66
2023/07/21 05:03:14;;;;;;;12.35;7.43;;;;;;;11.48;100.00;101082.78;10426759;28;20128;-66
2023/07/21 05:08:15;;;;;;;15.75;8.48;;;;;;;11.72;100.00;101091.66;10451518;28;20040;-67
2023/07/21 05:13:15;;;;;;;13.60;7.70;;;;;;;11.88;100.00;101082.47;10453248;28;20052;-67
2023/07/21 05:18:16;;;;;;;11.85;7.45;;;;;;;12.08;100.00;101086.56;10421854;28;20032;-66
2023/07/21 05:23:17;;;;;;;10.20;6.78;;;;;;;12.23;100.00;101086.72;10423725;28;20071;-67
2023/07/21 05:28:17;;;;;;;10.30;6.07;;;;;;;12.34;100.00;101086.81;10418004;28;20403;-68
2023/07/21 05:33:18;;;;;;;12.75;6.90;;;;;;;12.46;100.00;101090.25;10420881;28;20065;-68
2023/07/21 05:38:18;;;;;;;7.75;4.97;;;;;;;12.55;100.00;101087.84;10426132;28;20065;-67
2023/07/21 05:43:19;;;;;;;7.60;4.97;;;;;;;12.66;100.00;101081.31;10420853;28;20548;-67
2023/07/21 05:48:20;;;;;;;6.47;3.40;;;;;;;12.60;100.00;101080.44;10422731;28;20114;-67
2023/07/21 05:53:20;;;;;;;5.57;3.45;;;;;;;13.16;100.00;101093.03;10435077;28;20060;-67
2023/07/21 05:58:22;;;;;;;11.32;4.53;;;;;;;13.30;100.00;101089.56;10418055;28;20060;-67
2023/07/21 06:03:25;;;;;;;6.30;3.67;;;;;;;13.58;100.00;101093.03;10419228;28;20044;-68
2023/07/21 06:08:25;;;;;;;5.40;2.90;;;;;;;13.97;100.00;101086.25;10423744;28;20032;-67
2023/07/21 06:13:28;;;;;;;6.30;2.05;;;;;;;14.37;100.00;101087.47;10418466;28;20098;-67
2023/07/21 06:18:28;;;;;;;4.00;2.03;;;;;;;14.85;100.00;101077.00;10394719;28;20041;-66
2023/07/21 06:23:29;;;;;;;5.63;2.00;;;;;;;15.26;100.00;101074.19;10458766;28;20037;-67
2023/07/21 06:28:30;;;;;;;1.88;1.13;;;;;;;15.61;100.00;101067.69;10413979;28;20037;-67
2023/07/21 06:33:30;;;;;;;4.43;1.58;;;;;;;15.84;100.00;101038.44;10422508;28;20056;-67
2023/07/21 06:38:31;;;;;;;1.92;1.10;;;;;;;16.11;100.00;101053.84;10435767;28;20041;-66
2023/07/21 06:43:32;;;;;;;2.70;1.10;;;;;;;16.32;100.00;101054.53;10439162;28;20447;-66
2023/07/21 06:48:33;;;;;;;2.08;1.30;;;;;;;16.54;100.00;101045.78;10454196;28;20065;-67
2023/07/21 06:53:33;;;;;;;2.53;1.10;;;;;;;16.68;100.00;101029.25;10453677;28;20058;-66
2023/07/21 06:58:34;;;;;;;2.35;1.23;;;;;;;16.96;100.00;101030.41;10411664;28;20033;-66
2023/07/21 07:03:34;;;;;;;4.10;1.67;;;;;;;17.24;100.00;101034.28;10437995;28;20052;-67
2023/07/21 07:08:35;;;;;;;2.28;1.00;;;;;;;17.26;100.00;101033.97;10416874;28;20045;-67
2023/07/21 07:13:35;;;;;;;2.88;1.50;;;;;;;17.13;100.00;101027.97;10445190;28;20057;-66
2023/07/21 07:18:36;;;;;;;3.50;1.30;;;;;;;17.16;100.00;101029.38;10432148;28;20175;-66
2023/07/21 07:23:36;;;;;;;7.85;1.88;;;;;;;17.43;100.00;101028.78;10403399;28;20618;-67
2023/07/21 07:28:38;;;;;;;2.85;0.82;;;;;;;17.72;100.00;101009.19;10421884;28;20056;-67
2023/07/21 07:33:40;;;;;;;1.85;1.20;;;;;;;17.64;100.00;101007.06;10424184;28;20037;-67
2023/07/21 07:38:40;;;;;;;2.47;1.15;;;;;;;17.55;100.00;101003.31;10417536;28;20543;-67
2023/07/21 07:43:41;;;;;;;2.38;0.95;;;;;;;17.84;100.00;101017.16;10397903;28;20033;-67
2023/07/21 07:48:41;;;;;;;1.83;0.82;;;;;;;18.01;100.00;100996.31;10427769;28;20043;-67
2023/07/21 07:53:42;;;;;;;2.88;1.13;;;;;;;18.17;100.00;100989.38;10427753;28;20120;-67
2023/07/21 07:58:42;;;;;;;1.83;1.20;;;;;;;18.31;100.00;100987.47;10411200;28;20033;-68
2023/07/21 08:03:43;;;;;;;1.33;0.90;;;;;;;18.41;100.00;100974.47;10423194;28;20692;-67
2023/07/21 08:08:44;;;;;;;3.55;1.00;;;;;;;18.68;100.00;100970.94;10456372;28;20069;-67
2023/07/21 08:13:44;;;;;;;4.35;0.90;;;;;;;18.91;100.00;100969.13;10405575;28;20048;-67
2023/07/21 08:18:45;;;;;;;4.93;1.30;;;;;;;19.32;100.00;100982.28;10414472;28;20084;-67
2023/07/21 08:23:46;;;;;;;1.70;0.70;;;;;;;19.82;100.00;100973.94;10435250;28;20040;-68
2023/07/21 08:28:46;;;;;;;2.05;0.70;;;;;;;19.97;100.00;100964.41;10457610;28;20044;-67
2023/07/21 08:33:47;;;;;;;2.42;0.75;;;;;;;20.15;100.00;100971.78;10429104;28;20040;-68
2023/07/21 08:38:49;;;;;;;2.72;0.98;;;;;;;20.19;100.00;100955.19;10421442;28;20057;-68
2023/07/21 08:43:50;;;;;;;1.40;0.90;;;;;;;19.79;100.00;100924.31;10447279;28;20095;-68
2023/07/21 08:48:51;;;;;;;3.17;0.80;;;;;;;19.76;100.00;100950.06;10413103;28;20048;-67
2023/07/21 08:53:52;;;;;;;1.63;0.93;;;;;;;20.30;100.00;100967.78;10442680;28;20508;-67
2023/07/21 08:58:52;;;;;;;1.17;0.63;;;;;;;20.92;100.00;100946.63;10462951;28;20044;-68
2023/07/21 09:03:53;;;;;;;1.73;0.68;;;;;;;21.45;100.00;100944.84;10456490;28;20091;-67
2023/07/21 09:08:54;;;;;;;0.90;0.60;;;;;;;21.23;100.00;100937.31;10421256;28;20037;-69
2023/07/21 09:13:56;;;;;;;1.17;0.30;;;;;;;21.02;100.00;100940.72;10420324;28;20048;-67
2023/07/21 09:18:57;;;;;;;1.05;0.55;;;;;;;20.70;99.17;100941.91;10418493;28;20044;-68
2023/07/21 09:24:02;;;;;;;2.15;0.68;;;;;;;20.86;96.03;100923.53;10409532;28;20032;-69
2023/07/21 09:29:03;;;;;;;1.13;0.50;;;;;;;21.01;93.98;100927.88;10404425;28;20051;-68
2023/07/21 09:34:08;;;;;;;1.08;0.50;;;;;;;21.29;91.07;100910.81;10433748;28;20033;-68
2023/07/21 09:39:08;;;;;;;0.73;0.50;;;;;;;21.26;92.63;100911.47;10438661;28;20048;-69
2023/07/21 09:44:09;;;;;;;1.20;0.60;;;;;;;21.72;90.77;100907.28;10415715;28;20037;-68
2023/07/21 09:49:09;;;;;;;2.25;1.23;;;;;;;21.36;92.39;100919.59;10378164;28;20053;-68
2023/07/21 09:54:10;;;;;;;1.85;0.50;;;;;;;21.56;92.95;100896.56;10402082;28;20502;-68
2023/07/21 09:59:10;;;;;;;1.45;0.50;;;;;;;21.79;91.56;100904.84;10412722;28;20029;-68
2023/07/21 10:04:11;;;;;;;1.20;0.73;;;;;;;22.31;93.10;100920.81;10386024;28;20036;-68
2023/07/21 10:09:11;;;;;;;0.95;0.47;;;;;;;22.50;87.54;100883.97;10394516;28;20037;-69
2023/07/21 10:14:31;;;;;;;1.88;0.70;;;;;;;22.16;87.25;100902.50;10384306;28;20045;-68
2023/07/21 10:19:41;;;;;;;1.63;0.63;;;;;;;21.83;88.53;100893.75;10395750;28;20038;-68
2023/07/21 10:24:46;;;;;;;1.52;0.95;;;;;;;22.12;87.95;100902.34;10417973;28;20033;-68
2023/07/21 10:30:06;;;;;;;2.83;0.95;;;;;;;22.92;82.75;100875.69;10381484;28;20041;-69
2023/07/21 10:35:33;;;;;;;1.92;0.60;;;;;;;23.35;83.91;100888.69;10398390;28;20048;-68
2023/07/21 10:40:33;;;;;;;2.25;1.00;;;;;;;23.28;83.73;100885.59;10409417;28;20037;-69
2023/07/21 10:45:34;;;;;;;0.90;0.68;;;;;;;23.35;83.57;100877.44;10403201;28;20045;-69
2023/07/21 10:50:35;;;;;;;0.82;0.60;;;;;;;23.32;82.45;100880.94;10462665;28;20431;-66
2023/07/21 10:55:36;;;;;;;2.15;0.90;;;;;;;24.23;82.16;100880.38;10427299;28;20056;-69
2023/07/21 11:00:45;;;;;;;2.08;0.80;;;;;;;23.30;78.47;100870.03;10419499;28;20598;-69
2023/07/21 11:05:45;;;;;;;0.60;0.40;;;;;;;23.30;80.32;100875.66;10428048;28;20045;-69
2023/07/21 11:10:46;;;;;;;1.30;0.70;;;;;;;22.71;80.68;100862.41;10424568;28;20067;-69
2023/07/21 11:15:55;;;;;;;2.25;0.85;;;;;;;22.28;79.95;100871.81;10425950;28;20041;-69
2023/07/21 11:20:55;;;;;;;1.55;0.50;;;;;;;22.54;82.98;100876.53;10445630;28;20063;-69
2023/07/21 11:26:10;;;;;;;2.08;0.60;;;;;;;22.71;80.23;100884.84;10422175;28;20444;-69
2023/07/21 11:31:12;;;;;;;0.73;0.45;;;;;;;22.95;80.21;100867.41;10477794;28;20052;-68
2023/07/21 11:36:12;;;;;;;0.80;0.50;;;;;;;22.96;76.29;100862.63;10425831;28;20119;-69
2023/07/21 11:41:14;;;;;;;2.58;0.73;;;;;;;23.19;76.47;100859.53;10430924;28;20041;-68
2023/07/21 11:46:23;;;;;;;1.33;0.70;;;;;;;23.04;76.63;100853.34;10427004;28;20132;-69
2023/07/21 11:51:23;;;;;;;1.98;0.90;;;;;;;23.61;76.74;100846.34;10416107;28;20041;-69
2023/07/21 11:56:24;;;;;;;1.98;0.85;;;;;;;24.64;73.75;100839.19;10408325;28;20057;-69
2023/07/21 12:01:24;;;;;;;2.05;0.85;;;;;;;25.25;71.99;100830.72;10460704;28;20053;-68
2023/07/21 12:06:25;;;;;;;0.82;0.70;;;;;;;24.65;74.97;100838.84;10429652;28;20033;-69
2023/07/21 12:11:25;;;;;;;3.13;0.80;;;;;;;23.91;75.80;100841.44;10430555;28;20052;-69
2023/07/21 12:16:26;;;;;;;2.85;1.00;;;;;;;23.18;76.00;100839.06;10397790;28;20485;-69
2023/07/21 12:21:26;;;;;;;1.17;0.77;;;;;;;22.95;78.96;100844.16;10409630;28;20402;-70
2023/07/21 12:26:27;;;;;;;3.22;0.80;;;;;;;24.15;78.39;100820.22;10446159;28;20568;-69
2023/07/21 12:31:28;;;;;;;2.13;1.25;;;;;;;25.84;74.31;100820.78;10430912;28;20045;-68
2023/07/21 12:36:29;;;;;;;1.60;0.80;;;;;;;26.94;71.56;100804.31;10426762;28;20036;-69
2023/07/21 12:41:30;;;;;;;1.35;0.95;;;;;;;26.70;67.99;100796.84;10407776;28;20467;-70
2023/07/21 12:46:30;;;;;;;2.60;1.02;;;;;;;26.30;65.42;100784.56;10458470;28;20560;-69
2023/07/21 12:51:31;;;;;;;2.25;1.08;;;;;;;25.28;68.75;100812.28;10424367;28;20536;-69
2023/07/21 12:56:31;;;;;;;2.55;0.90;;;;;;;24.41;71.04;100813.44;10425325;28;20048;-69
2023/07/21 13:01:32;;;;;;;1.15;0.80;;;;;;;23.91;72.03;100816.16;10431156;28;20040;-70
2023/07/21 13:06:32;;;;;;;4.00;1.90;;;;;;;22.94;78.48;100871.41;10442176;28;20033;-69
2023/07/21 13:11:33;;;;;;;6.32;1.40;;;;;;;21.53;86.85;100900.03;10454073;28;22040;-69
2023/07/21 13:16:33;;;;;;;6.25;1.65;;;;;;;19.93;94.16;100918.69;10477223;28;20029;-68
2023/07/21 13:21:34;;;;;;;6.35;1.88;;;;;;;19.23;100.00;100925.53;10453924;28;20374;-67
2023/07/21 13:26:35;;;;;;;9.02;2.58;;;;;;;18.67;100.00;100939.44;10444759;28;20032;-68
2023/07/21 13:31:35;;;;;;;4.80;1.80;;;;;;;18.25;100.00;100983.09;10398790;28;20049;-69
2023/07/21 13:36:36;;;;;;;3.75;1.90;;;;;;;17.70;100.00;101016.19;10458352;28;20032;-68
2023/07/21 13:41:36;;;;;;;5.47;2.15;;;;;;;16.91;100.00;101022.13;10412901;28;20032;-69
2023/07/21 13:46:37;;;;;;;5.65;2.50;;;;;;;16.65;100.00;101013.16;10420094;28;20087;-68
2023/07/21 13:51:37;;;;;;;0.95;0.57;;;;;;;15.83;100.00;100999.88;10405147;28;20131;-68
2023/07/21 13:56:38;;;;;;;1.88;0.80;;;;;;;15.28;100.00;100997.06;10439301;28;20041;-67
2023/07/21 14:01:38;;;;;;;1.65;0.98;;;;;;;15.28;100.00;100994.28;10414830;28;20036;-67
2023/07/21 14:06:39;;;;;;;3.15;1.55;;;;;;;15.34;100.00;100984.84;10455446;28;20037;-68
2023/07/21 14:11:39;;;;;;;1.45;0.77;;;;;;;15.43;100.00;100993.38;10452646;28;20055;-68
2023/07/21 14:16:40;;;;;;;1.55;0.82;;;;;;;15.58;100.00;100996.06;10452547;28;20033;-68
2023/07/21 14:21:40;;;;;;;2.78;1.95;;;;;;;15.58;100.00;100973.06;10453110;28;20056;-68
2023/07/21 14:26:41;;;;;;;1.65;1.15;;;;;;;15.63;100.00;100984.16;10424774;28;20053;-68
2023/07/21 14:31:41;;;;;;;1.80;1.10;;;;;;;15.72;100.00;100979.66;10451609;28;20057;-68
2023/07/21 14:36:42;;;;;;;2.03;1.15;;;;;;;15.85;100.00;100979.03;10425847;28;20055;-67
2023/07/21 14:41:42;;;;;;;1.90;1.20;;;;;;;15.76;100.00;100977.97;10451218;28;20110;-67
2023/07/21 14:46:43;;;;;;;2.25;1.08;;;;;;;15.57;100.00;100980.56;10425548;28;20041;-68
2023/07/21 14:51:45;;;;;;;2.70;1.50;;;;;;;15.66;100.00;100970.50;10438910;28;20124;-68
2023/07/21 14:56:45;;;;;;;2.38;1.17;;;;;;;15.68;100.00;100979.38;10453295;28;20037;-68
2023/07/21 15:01:46;;;;;;;3.38;2.00;;;;;;;15.80;100.00;100975.47;10455674;28;20063;-67
2023/07/21 15:06:47;;;;;;;2.40;1.80;;;;;;;15.83;100.00;100978.47;10417818;28;20036;-68
2023/07/21 15:11:48;;;;;;;5.32;2.80;;;;;;;15.92;100.00;100978.72;10421102;28;20041;-67
2023/07/21 15:16:51;;;;;;;2.70;1.63;;;;;;;15.98;100.00;100985.06;10436376;28;20484;-68
2023/07/21 15:21:51;;;;;;;2.50;1.67;;;;;;;16.16;100.00;100981.59;10438263;28;20428;-68
2023/07/21 15:26:52;;;;;;;2.67;1.60;;;;;;;16.38;100.00;100978.38;10418108;28;20060;-68
2023/07/21 15:31:53;;;;;;;2.85;1.55;;;;;;;16.50;100.00;100978.00;10417836;28;20087;-68
2023/07/21 15:36:53;;;;;;;4.47;2.70;;;;;;;16.37;100.00;100964.75;10423186;28;20033;-69
2023/07/21 15:41:54;;;;;;;3.47;1.90;;;;;;;16.38;100.00;100966.44;10463382;28;20094;-69
2023/07/21 15:46:54;;;;;;;4.47;2.28;;;;;;;16.39;100.00;100977.25;10414997;28;20037;-69
2023/07/21 15:51:55;;;;;;;4.78;2.40;;;;;;;16.36;100.00;100983.38;10431151;28;20056;-69
2023/07/21 15:56:55;;;;;;;4.57;2.35;;;;;;;16.33;100.00;100979.25;10436070;28;20064;-69
2023/07/21 16:01:57;;;;;;;5.15;2.75;;;;;;;16.40;100.00;100989.19;10429092;28;20515;-69
2023/07/21 16:06:58;;;;;;;3.40;2.05;;;;;;;16.47;100.00;100984.94;10443981;28;20084;-68
2023/07/21 16:11:58;;;;;;;4.88;2.75;;;;;;;16.52;100.00;100981.31;10442705;28;20365;-68
2023/07/21 16:16:59;;;;;;;5.47;2.72;;;;;;;16.60;100.00;100983.47;10444439;28;20037;-69
2023/07/21 16:22:00;;;;;;;6.45;3.25;;;;;;;16.53;100.00;100994.06;10427659;28;20517;-69
2023/07/21 16:27:01;;;;;;;5.57;2.80;;;;;;;16.68;100.00;100981.97;10423039;28;20043;-69
2023/07/21 16:32:01;;;;;;;3.80;2.50;;;;;;;17.19;100.00;100986.22;10460365;28;20040;-69
2023/07/21 16:37:03;;;;;;;5.90;2.83;;;;;;;17.93;100.00;100987.47;10425733;28;20041;-69
2023/07/21 16:42:03;;;;;;;6.63;3.40;;;;;;;18.20;100.00;100974.00;10431568;28;20041;-70
2023/07/21 16:47:04;;;;;;;6.72;3.58;;;;;;;18.27;100.00;100964.13;10428070;28;20056;-71
2023/07/21 16:52:05;;;;;;;4.63;3.13;;;;;;;18.47;100.00;100970.47;10437808;28;20104;-68
2023/07/21 16:57:06;;;;;;;6.75;3.47;;;;;;;18.33;100.00;100962.91;10439604;28;20045;-68
2023/07/21 17:02:06;;;;;;;9.13;4.40;;;;;;;18.33;100.00;100950.91;10431249;28;20672;-68
2023/07/21 17:07:07;;;;;;;7.95;4.60;;;;;;;18.38;100.00;100958.38;10436044;28;20032;-69
2023/07/21 17:12:07;;;;;;;8.27;5.03;;;;;;;18.38;100.00;100961.16;10426228;28;20043;-69
2023/07/21 17:17:08;;;;;;;8.75;5.30;;;;;;;18.15;100.00;100974.91;10423225;28;20045;-69
2023/07/21 17:22:10;;;;;;;8.65;4.78;;;;;;;17.72;100.00;100983.31;10427497;28;20036;-69
2023/07/21 17:27:10;;;;;;;7.03;4.13;;;;;;;17.75;100.00;100986.31;10444004;28;20044;-68
2023/07/21 17:32:11;;;;;;;9.57;4.07;;;;;;;17.85;100.00;100978.97;10417677;28;20060;-66
2023/07/21 17:37:11;;;;;;;9.45;4.60;;;;;;;18.05;100.00;100983.44;10460278;28;20045;-68
2023/07/21 17:42:12;;;;;;;7.45;3.70;;;;;;;18.03;100.00;100971.75;10476806;28;20040;-67
2023/07/21 17:47:12;;;;;;;7.40;3.08;;;;;;;18.03;100.00;100971.75;10454930;28;20037;-68
2023/07/21 17:52:13;;;;;;;5.55;3.47;;;;;;;17.95;100.00;100976.03;10440338;28;20125;-68
2023/07/21 17:57:13;;;;;;;6.78;2.95;;;;;;;17.69;100.00;100975.53;10423010;28;20067;-67
2023/07/21 18:02:14;;;;;;;5.18;3.30;;;;;;;17.45;100.00;100983.97;10437258;28;20037;-68
2023/07/21 18:07:15;;;;;;;5.93;3.38;;;;;;;17.31;100.00;100978.28;10429527;28;20043;-66
2023/07/21 18:12:15;;;;;;;7.10;3.80;;;;;;;17.25;100.00;100982.25;10455906;28;20044;-68
2023/07/21 18:17:16;;;;;;;6.45;3.63;;;;;;;17.02;100.00;100979.16;10455457;28;20040;-67
2023/07/21 18:22:16;;;;;;;5.97;3.47;;;;;;;17.00;100.00;100992.53;10437625;28;20492;-68
2023/07/21 18:27:17;;;;;;;7.13;3.80;;;;;;;17.03;100.00;100983.63;10425976;28;20088;-68
2023/07/21 18:32:17;;;;;;;6.20;4.30;;;;;;;17.04;100.00;100993.59;10406279;28;20071;-68
2023/07/21 18:37:18;;;;;;;6.63;4.30;;;;;;;16.82;100.00;100957.97;10441103;28;20037;-68
2023/07/21 18:42:19;;;;;;;6.43;3.78;;;;;;;16.82;100.00;100979.38;10425830;28;20071;-68
2023/07/21 18:47:21;;;;;;;5.93;3.92;;;;;;;16.74;100.00;101012.25;10388950;28;20056;-67
2023/07/21 18:52:21;;;;;;;6.85;4.05;;;;;;;16.58;100.00;101010.72;10424360;28;20130;-68
2023/07/21 18:57:22;;;;;;;7.90;4.60;;;;;;;16.42;100.00;101003.63;10455192;28;20095;-67
2023/07/21 19:02:22;;;;;;;6.70;4.25;;;;;;;16.28;100.00;101009.84;10446507;28;20036;-67
2023/07/21 19:07:23;;;;;;;7.72;4.68;;;;;;;16.22;100.00;101022.09;10414554;28;20059;-68
2023/07/21 19:12:24;;;;;;;8.00;4.78;;;;;;;16.06;100.00;101024.19;10448722;28;20036;-68
2023/07/21 19:17:25;;;;;;;8.32;4.68;;;;;;;15.91;100.00;101032.59;10445084;28;20045;-67
2023/07/21 19:22:26;;;;;;;9.32;5.38;;;;;;;15.70;100.00;101032.66;10477069;28;20066;-68
2023/07/21 19:27:28;;;;;;;8.38;4.80;;;;;;;15.57;100.00;101038.00;10447462;28;20041;-68
2023/07/21 19:32:28;;;;;;;9.85;5.78;;;;;;;15.43;100.00;101055.25;10422643;28;20171;-68
2023/07/21 19:37:29;;;;;;;7.18;4.90;;;;;;;15.32;100.00;101056.41;10462876;28;20106;-68
2023/07/21 19:42:29;;;;;;;10.27;5.82;;;;;;;15.38;100.00;101071.94;10440498;28;20033;-68
2023/07/21 19:47:30;;;;;;;8.07;5.18;;;;;;;15.40;100.00;101080.78;10431955;28;20028;-68
2023/07/21 19:52:31;;;;;;;10.30;4.45;;;;;;;15.33;100.00;101077.47;10479873;28;20044;-68
2023/07/21 19:57:32;;;;;;;9.35;4.65;;;;;;;15.19;100.00;101081.94;10441686;28;20519;-68
2023/07/21 20:02:33;;;;;;;8.77;4.32;;;;;;;15.06;100.00;101098.03;10413942;28;20086;-68
2023/07/21 20:07:33;;;;;;;7.72;4.18;;;;;;;14.89;100.00;101090.03;10427595;28;20036;-68
2023/07/21 20:12:34;;;;;;;8.27;4.55;;;;;;;14.69;100.00;101103.88;10427603;28;20044;-68
2023/07/21 20:17:34;;;;;;;10.02;4.78;;;;;;;14.53;100.00;101092.75;10476081;28;20032;-68
2023/07/21 20:22:35;;;;;;;9.77;5.20;;;;;;;14.36;100.00;101107.97;10425408;28;20036;-68
2023/07/21 20:27:36;;;;;;;7.18;5.10;;;;;;;14.20;100.00;101110.72;10378273;28;20057;-67
2023/07/21 20:32:36;;;;;;;8.90;5.10;;;;;;;14.08;100.00;101112.88;10382252;28;20049;-68
2023/07/21 20:37:37;;;;;;;9.93;6.15;;;;;;;13.98;100.00;101112.84;10390845;28;20043;-67
2023/07/21 20:42:38;;;;;;;11.07;6.07;;;;;;;13.77;100.00;101107.22;10430135;28;20095;-67
2023/07/21 20:47:39;;;;;;;8.65;4.25;;;;;;;13.77;100.00;101129.38;10416849;28;20163;-68
2023/07/21 20:52:39;;;;;;;10.10;5.47;;;;;;;13.66;100.00;101133.16;10432821;28;20056;-67
2023/07/21 20:57:40;;;;;;;7.45;5.18;;;;;;;13.57;100.00;101143.09;10411115;28;20096;-69
2023/07/21 21:02:42;;;;;;;7.30;4.70;;;;;;;13.47;100.00;101136.38;10391528;28;20045;-68
2023/07/21 21:07:43;;;;;;;8.20;4.28;;;;;;;13.39;100.00;101145.19;10397042;28;20093;-67
2023/07/21 21:12:44;;;;;;;8.75;4.32;;;;;;;13.30;100.00;101146.78;10368697;28;20041;-67
2023/07/21 21:17:44;;;;;;;10.88;4.63;;;;;;;13.21;100.00;101145.56;10372775;28;20047;-67
2023/07/21 21:22:45;;;;;;;6.53;3.22;;;;;;;13.06;100.00;101147.16;10396854;28;20535;-67
2023/07/21 21:27:45;;;;;;;6.25;2.50;;;;;;;13.06;100.00;101155.44;10366765;28;20069;-66
2023/07/21 21:32:46;;;;;;;6.07;2.42;;;;;;;13.01;100.00;101160.09;10396892;28;20400;-67
2023/07/21 21:37:46;;;;;;;6.30;2.60;;;;;;;12.92;100.00;101162.50;10369919;28;20060;-67
2023/07/21 21:42:47;;;;;;;6.10;3.20;;;;;;;12.86;100.00;101163.56;10378833;28;20045;-67
2023/07/21 21:47:47;;;;;;;7.75;4.10;;;;;;;12.81;100.00;101160.75;10410315;28;20057;-67
2023/07/21 21:52:48;;;;;;;7.20;2.53;;;;;;;12.72;100.00;101157.63;10365231;28;20049;-67
2023/07/21 21:57:49;;;;;;;7.10;3.17;;;;;;;12.26;100.00;101111.06;10375744;28;20041;-67
2023/07/21 22:02:50;;;;;;;5.22;3.08;;;;;;;12.54;100.00;101153.28;10347241;28;20049;-67
2023/07/21 22:07:50;;;;;;;11.70;3.60;;;;;;;12.59;100.00;101175.47;10347459;28;20057;-67
2023/07/21 22:12:51;;;;;;;9.32;3.08;;;;;;;12.62;100.00;101176.84;10359198;28;20048;-66
2023/07/21 22:17:51;;;;;;;6.22;3.42;;;;;;;12.15;100.00;101100.16;10410978;28;20044;-67
2023/07/21 22:22:52;;;;;;;10.88;4.97;;;;;;;12.60;100.00;101182.63;10454063;28;20044;-67
2023/07/21 22:27:53;;;;;;;7.32;4.05;;;;;;;12.52;100.00;101174.81;10411099;28;20056;-67
2023/07/21 22:32:53;;;;;;;14.02;4.53;;;;;;;12.55;100.00;101182.59;10422043;28;20074;-67
2023/07/21 22:37:54;;;;;;;12.05;5.00;;;;;;;12.49;100.00;101178.13;10422877;28;20033;-67
2023/07/21 22:42:55;;;;;;;9.15;4.22;;;;;;;12.48;100.00;101181.94;10427744;28;20043;-68
2023/07/21 22:47:55;;;;;;;10.25;3.97;;;;;;;12.49;100.00;101181.69;10439859;28;20032;-67